createdAt,value
2022-12-16T00:01:36.896Z,1.10
2022-12-16T00:04:06.271Z,1.20
2022-12-16T00:06:35.470Z,1.10
2022-12-16T00:09:03.669Z,1.10
2022-12-16T00:11:32.369Z,1.10
2022-12-16T00:14:00.492Z,1.10
2022-12-16T00:16:28.731Z,1.10
2022-12-16T00:18:56.694Z,1.10
2022-12-16T00:21:29.589Z,1.00
2022-12-16T00:23:58.170Z,1.00
2022-12-16T00:26:26.207Z,1.00
2022-12-16T00:28:54.161Z,1.00
2022-12-16T00:31:22.951Z,1.00
2022-12-16T00:33:52.933Z,1.00
2022-12-16T00:36:20.878Z,0.90
2022-12-16T00:38:51.944Z,0.90
2022-12-16T00:41:19.939Z,1.00
2022-12-16T00:43:47.874Z,1.00
2022-12-16T00:46:15.978Z,1.00
2022-12-16T00:48:44.119Z,1.00
2022-12-16T00:51:12.007Z,1.00
2022-12-16T00:53:39.968Z,1.00
2022-12-16T00:56:11.718Z,1.00
2022-12-16T00:58:39.719Z,1.00
2022-12-16T01:01:08.329Z,0.90
2022-12-16T01:03:37.051Z,1.00
2022-12-16T01:06:10.218Z,1.00
2022-12-16T01:08:38.135Z,1.00
2022-12-16T01:11:06.359Z,1.00
2022-12-16T01:13:36.072Z,1.00
2022-12-16T01:16:04.438Z,1.00
2022-12-16T01:18:32.891Z,1.10
2022-12-16T01:21:04.852Z,1.10
2022-12-16T01:23:33.541Z,1.10
2022-12-16T01:26:02.829Z,1.10
2022-12-16T01:28:31.159Z,1.10
2022-12-16T01:31:02.527Z,1.10
2022-12-16T01:33:31.649Z,1.10
2022-12-16T01:36:01.765Z,1.10
2022-12-16T01:38:29.722Z,1.10
2022-12-16T01:40:57.750Z,1.10
2022-12-16T01:43:28.212Z,1.10
2022-12-16T01:45:59.794Z,1.10
2022-12-16T01:48:37.282Z,1.00
2022-12-16T01:51:09.157Z,1.00
2022-12-16T01:53:38.483Z,1.00
2022-12-16T01:56:07.595Z,1.00
2022-12-16T01:58:38.100Z,0.90
2022-12-16T02:01:07.137Z,0.90
2022-12-16T02:03:38.043Z,0.90
2022-12-16T02:06:08.399Z,0.80
2022-12-16T02:08:36.786Z,0.80
2022-12-16T02:11:28.814Z,0.80
2022-12-16T02:14:36.931Z,0.80
2022-12-16T02:17:15.955Z,0.70
2022-12-16T02:20:09.996Z,0.70
2022-12-16T02:22:54.025Z,0.70
2022-12-16T02:25:39.886Z,0.70
2022-12-16T02:28:13.286Z,0.60
2022-12-16T02:31:02.847Z,0.60
2022-12-16T02:33:45.056Z,0.60
2022-12-16T02:36:26.468Z,0.60
2022-12-16T02:39:00.737Z,0.50
2022-12-16T02:41:38.745Z,0.60
2022-12-16T02:44:08.977Z,0.60
2022-12-16T02:46:44.250Z,0.60
2022-12-16T02:49:46.173Z,0.60
2022-12-16T02:52:16.228Z,0.60
2022-12-16T02:54:45.706Z,0.60
2022-12-16T02:57:36.321Z,0.60
2022-12-16T03:00:08.886Z,0.70
2022-12-16T03:02:49.327Z,0.50
2022-12-16T03:05:22.470Z,0.50
2022-12-16T03:07:52.947Z,0.50
2022-12-16T03:10:26.856Z,0.50
2022-12-16T03:12:56.488Z,0.50
2022-12-16T03:15:27.553Z,0.40
2022-12-16T03:17:59.689Z,0.40
2022-12-16T03:20:33.180Z,0.40
2022-12-16T03:23:05.034Z,0.40
2022-12-16T03:25:36.576Z,0.40
2022-12-16T03:28:14.896Z,0.40
2022-12-16T03:30:50.221Z,0.40
2022-12-16T03:33:28.240Z,0.40
2022-12-16T03:36:00.680Z,0.40
2022-12-16T03:38:30.843Z,0.40
2022-12-16T03:41:01.163Z,0.40
2022-12-16T03:43:30.328Z,0.40
2022-12-16T03:46:05.098Z,0.40
2022-12-16T03:48:35.490Z,0.40
2022-12-16T03:51:04.096Z,0.40
2022-12-16T03:53:32.695Z,0.50
2022-12-16T03:56:01.324Z,0.50
2022-12-16T03:58:29.503Z,0.50
2022-12-16T04:00:57.729Z,0.40
2022-12-16T04:03:25.806Z,0.40
2022-12-16T04:05:55.395Z,0.60
2022-12-16T04:08:23.824Z,0.40
2022-12-16T04:11:10.230Z,0.40
2022-12-16T04:13:56.045Z,0.40
2022-12-16T04:16:45.311Z,0.30
2022-12-16T04:19:37.405Z,0.30
2022-12-16T04:22:28.118Z,0.40
2022-12-16T04:24:56.584Z,0.20
2022-12-16T04:27:28.412Z,0.30
2022-12-16T04:30:14.191Z,0.40
2022-12-16T04:33:00.364Z,0.40
2022-12-16T04:35:46.167Z,0.40
2022-12-16T04:38:48.367Z,0.40
2022-12-16T04:41:34.212Z,0.40
2022-12-16T04:44:20.556Z,0.40
2022-12-16T04:47:06.613Z,0.40
2022-12-16T04:49:51.793Z,0.40
2022-12-16T04:52:37.978Z,0.40
2022-12-16T04:55:31.680Z,0.40
2022-12-16T04:58:19.382Z,0.40
2022-12-16T05:01:06.970Z,0.30
2022-12-16T05:03:53.961Z,0.30
2022-12-16T05:06:40.336Z,0.40
2022-12-16T05:09:26.929Z,0.40
2022-12-16T05:12:14.671Z,0.30
2022-12-16T05:15:00.853Z,0.30
2022-12-16T05:17:46.433Z,0.30
2022-12-16T05:20:32.523Z,0.30
2022-12-16T05:23:18.502Z,0.30
2022-12-16T05:26:03.940Z,0.30
2022-12-16T05:28:50.865Z,0.30
2022-12-16T05:31:36.498Z,0.40
2022-12-16T05:34:22.657Z,0.40
2022-12-16T05:37:08.932Z,0.40
2022-12-16T05:39:57.049Z,0.40
2022-12-16T05:42:43.876Z,0.40
2022-12-16T05:45:30.910Z,0.40
2022-12-16T05:48:16.789Z,0.30
2022-12-16T05:51:02.357Z,0.30
2022-12-16T05:53:48.099Z,0.30
2022-12-16T05:56:34.048Z,0.30
2022-12-16T05:59:19.834Z,0.30
2022-12-16T06:02:09.837Z,0.30
2022-12-16T06:04:58.028Z,0.30
2022-12-16T06:07:44.481Z,0.30
2022-12-16T06:10:33.386Z,0.30
2022-12-16T06:13:19.465Z,0.30
2022-12-16T06:16:08.977Z,0.30
2022-12-16T06:18:56.942Z,0.30
2022-12-16T06:21:43.108Z,0.30
2022-12-16T06:24:28.808Z,0.40
2022-12-16T06:27:15.751Z,0.30
2022-12-16T06:30:02.135Z,0.40
2022-12-16T06:32:56.342Z,0.40
2022-12-16T06:35:43.502Z,0.40
2022-12-16T06:38:30.561Z,0.50
2022-12-16T06:41:16.676Z,0.40
2022-12-16T06:44:08.265Z,0.40
2022-12-16T06:46:54.033Z,0.40
2022-12-16T06:50:01.093Z,0.40
2022-12-16T06:52:51.601Z,0.40
2022-12-16T06:55:37.435Z,0.40
2022-12-16T06:58:23.111Z,0.40
2022-12-16T07:01:09.641Z,0.40
2022-12-16T07:03:55.999Z,0.30
2022-12-16T07:06:41.358Z,0.30
2022-12-16T07:09:28.967Z,0.40
2022-12-16T07:12:16.869Z,0.30
2022-12-16T07:15:05.413Z,0.40
2022-12-16T07:17:53.265Z,0.30
2022-12-16T07:20:39.111Z,0.30
2022-12-16T07:23:24.482Z,0.70
2022-12-16T07:26:11.964Z,0.40
2022-12-16T07:28:57.998Z,0.40
2022-12-16T07:32:02.223Z,0.50
2022-12-16T07:34:50.317Z,0.50
2022-12-16T07:37:42.624Z,0.50
2022-12-16T07:40:29.307Z,0.50
2022-12-16T07:43:29.013Z,0.60
2022-12-16T07:46:15.433Z,0.70
2022-12-16T07:49:03.074Z,0.60
2022-12-16T07:51:49.821Z,0.60
2022-12-16T07:54:35.576Z,0.90
2022-12-16T07:57:22.594Z,1.80
2022-12-16T08:00:10.288Z,0.70
2022-12-16T08:02:56.139Z,0.70
2022-12-16T08:05:42.028Z,0.70
2022-12-16T08:08:27.741Z,0.70
2022-12-16T08:11:13.579Z,0.70
2022-12-16T08:13:59.951Z,0.70
2022-12-16T08:16:47.009Z,0.70
2022-12-16T08:19:33.727Z,0.70
2022-12-16T08:22:19.387Z,0.70
2022-12-16T08:25:19.935Z,0.70
2022-12-16T08:28:05.807Z,0.70
2022-12-16T08:30:51.592Z,0.80
2022-12-16T08:33:42.487Z,0.70
2022-12-16T08:36:28.391Z,0.80
2022-12-16T08:39:13.923Z,0.90
2022-12-16T08:41:59.254Z,1.00
2022-12-16T08:44:44.607Z,1.10
2022-12-16T08:47:30.298Z,1.20
2022-12-16T08:50:17.059Z,1.20
2022-12-16T08:53:02.736Z,1.30
2022-12-16T08:55:48.229Z,1.40
2022-12-16T08:58:34.382Z,1.40
2022-12-16T09:01:19.980Z,1.40
2022-12-16T09:04:05.374Z,1.30
2022-12-16T09:06:52.398Z,1.40
2022-12-16T09:09:39.671Z,1.50
2022-12-16T09:12:26.377Z,1.60
2022-12-16T09:15:16.426Z,1.50
2022-12-16T09:18:01.987Z,1.50
2022-12-16T09:20:47.699Z,1.50
2022-12-16T09:23:34.880Z,1.60
2022-12-16T09:26:20.431Z,1.60
2022-12-16T09:29:06.030Z,1.80
2022-12-16T09:31:51.515Z,1.90
2022-12-16T09:34:36.975Z,2.00
2022-12-16T09:37:22.695Z,2.10
2022-12-16T09:40:09.772Z,2.10
2022-12-16T09:43:07.514Z,2.20
2022-12-16T09:46:03.703Z,2.40
2022-12-16T09:48:58.365Z,2.50
2022-12-16T09:51:44.846Z,2.80
2022-12-16T09:54:33.648Z,2.80
2022-12-16T09:57:25.660Z,2.70
2022-12-16T10:00:27.448Z,2.70
2022-12-16T10:03:14.820Z,2.80
2022-12-16T10:06:13.420Z,2.60
2022-12-16T10:09:05.738Z,2.50
2022-12-16T10:12:06.196Z,2.30
2022-12-16T10:14:59.712Z,2.20
2022-12-16T10:17:45.375Z,2.00
2022-12-16T10:20:39.400Z,2.00
2022-12-16T10:23:36.526Z,2.00
2022-12-16T10:26:26.751Z,2.20
2022-12-16T10:29:20.917Z,2.30
2022-12-16T10:32:07.617Z,2.50
2022-12-16T10:34:58.428Z,2.60
2022-12-16T10:37:51.095Z,2.60
2022-12-16T10:40:40.494Z,2.70
2022-12-16T10:43:38.785Z,2.80
2022-12-16T10:46:30.588Z,2.80
2022-12-16T10:49:17.695Z,2.80
2022-12-16T10:52:08.938Z,2.80
2022-12-16T10:55:00.225Z,2.70
2022-12-16T10:57:59.628Z,2.60
2022-12-16T11:00:59.625Z,2.50
2022-12-16T11:03:47.559Z,2.40
2022-12-16T11:06:39.696Z,2.40
2022-12-16T11:09:50.551Z,2.30
2022-12-16T11:12:42.910Z,2.20
2022-12-16T11:15:46.390Z,2.10
2022-12-16T11:18:34.337Z,2.00
2022-12-16T11:21:27.621Z,2.00
2022-12-16T11:24:33.887Z,2.00
2022-12-16T11:27:21.502Z,2.00
2022-12-16T11:30:12.424Z,1.90
2022-12-16T11:33:02.187Z,2.00
2022-12-16T11:35:50.860Z,1.90
2022-12-16T11:38:46.815Z,1.90
2022-12-16T11:41:42.589Z,1.80
2022-12-16T11:44:36.180Z,1.70
2022-12-16T11:47:23.720Z,1.80
2022-12-16T11:50:18.400Z,1.80
2022-12-16T11:53:13.860Z,1.80
2022-12-16T11:56:07.731Z,1.80
2022-12-16T11:59:04.302Z,1.90
2022-12-16T12:01:55.473Z,1.90
2022-12-16T12:04:41.423Z,2.00
2022-12-16T12:07:45.901Z,2.00
2022-12-16T12:11:01.855Z,2.00
2022-12-16T12:14:08.942Z,2.00
2022-12-16T12:17:04.127Z,2.00
2022-12-16T12:20:03.216Z,1.90
2022-12-16T12:22:54.198Z,2.00
2022-12-16T12:25:46.672Z,1.90
2022-12-16T12:28:46.906Z,1.80
2022-12-16T12:31:50.771Z,1.80
2022-12-16T12:34:47.199Z,1.80
2022-12-16T12:37:41.692Z,1.70
2022-12-16T12:40:40.796Z,1.70
2022-12-16T12:43:39.779Z,1.60
2022-12-16T12:46:38.773Z,1.60
2022-12-16T12:49:31.842Z,1.60
2022-12-16T12:52:25.425Z,1.60
2022-12-16T12:55:16.793Z,1.40
2022-12-16T12:58:00.928Z,1.40
2022-12-16T13:00:49.153Z,1.40
2022-12-16T13:03:46.982Z,1.40
2022-12-16T13:06:33.656Z,1.50
2022-12-16T13:09:19.615Z,1.40
2022-12-16T13:12:41.307Z,1.40
2022-12-16T13:15:27.488Z,1.50
2022-12-16T13:18:39.834Z,1.50
2022-12-16T13:22:05.958Z,1.50
2022-12-16T13:25:03.167Z,1.50
2022-12-16T13:28:05.054Z,1.50
2022-12-16T13:30:49.260Z,1.50
2022-12-16T13:33:48.575Z,1.50
2022-12-16T13:36:36.632Z,1.40
2022-12-16T13:39:41.561Z,1.40
2022-12-16T13:43:07.284Z,1.40
2022-12-16T13:45:56.372Z,1.40
2022-12-16T13:48:48.857Z,1.40
2022-12-16T13:52:25.525Z,1.40
2022-12-16T13:55:30.496Z,1.50
2022-12-16T13:58:23.888Z,1.40
2022-12-16T14:01:22.619Z,1.40
2022-12-16T14:04:11.300Z,1.40
2022-12-16T14:07:00.637Z,1.30
2022-12-16T14:09:54.215Z,1.30
2022-12-16T14:13:04.001Z,1.30
2022-12-16T14:15:59.473Z,1.20
2022-12-16T14:18:57.392Z,1.20
2022-12-16T14:21:50.066Z,1.30
2022-12-16T14:24:42.439Z,1.30
2022-12-16T14:27:33.493Z,1.30
2022-12-16T14:30:21.713Z,1.40
2022-12-16T14:33:07.191Z,1.30
2022-12-16T14:35:52.870Z,1.30
2022-12-16T14:38:44.028Z,1.30
2022-12-16T14:41:31.283Z,1.30
2022-12-16T14:44:16.961Z,1.30
2022-12-16T14:47:23.562Z,1.30
2022-12-16T14:50:11.340Z,1.30
2022-12-16T14:52:57.810Z,1.30
2022-12-16T14:55:47.260Z,1.30
2022-12-16T14:58:35.298Z,1.30
2022-12-16T15:01:23.760Z,1.30
2022-12-16T15:04:11.514Z,1.30
2022-12-16T15:07:00.253Z,1.30
2022-12-16T15:09:49.409Z,1.30
2022-12-16T15:12:39.974Z,1.30
2022-12-16T15:15:32.556Z,1.30
2022-12-16T15:18:20.207Z,1.20
2022-12-16T15:21:10.829Z,1.20
2022-12-16T15:24:00.371Z,1.20
2022-12-16T15:26:49.054Z,1.20
2022-12-16T15:29:47.569Z,1.10
2022-12-16T15:32:48.227Z,1.10
2022-12-16T15:35:44.561Z,1.10
2022-12-16T15:38:41.045Z,1.10
2022-12-16T15:41:40.160Z,1.10
2022-12-16T15:44:33.038Z,1.10
2022-12-16T15:47:19.088Z,1.10
2022-12-16T15:50:07.162Z,1.10
2022-12-16T15:52:56.380Z,1.10
2022-12-16T15:55:47.613Z,1.00
2022-12-16T15:58:37.812Z,1.10
2022-12-16T16:01:25.049Z,1.10
2022-12-16T16:04:12.405Z,1.10
2022-12-16T16:07:00.574Z,1.00
2022-12-16T16:09:48.126Z,1.00
2022-12-16T16:12:36.532Z,1.00
2022-12-16T16:15:23.455Z,1.00
2022-12-16T16:18:13.349Z,0.90
2022-12-16T16:20:59.376Z,1.00
2022-12-16T16:23:44.838Z,1.00
2022-12-16T16:26:31.762Z,0.90
2022-12-16T16:29:18.910Z,1.00
2022-12-16T16:32:04.943Z,1.00
2022-12-16T16:34:50.628Z,0.90
2022-12-16T16:37:38.300Z,0.90
2022-12-16T16:40:36.157Z,1.00
2022-12-16T16:43:18.031Z,1.00
2022-12-16T16:46:21.182Z,1.10
2022-12-16T16:49:07.468Z,1.00
2022-12-16T16:51:53.238Z,1.00
2022-12-16T16:54:38.666Z,0.90
2022-12-16T16:57:24.504Z,0.90
2022-12-16T17:00:10.143Z,0.90
2022-12-16T17:02:57.337Z,0.90
2022-12-16T17:05:42.856Z,0.90
2022-12-16T17:08:28.678Z,0.80
2022-12-16T17:11:15.174Z,0.80
2022-12-16T17:14:00.683Z,0.80
2022-12-16T17:17:00.815Z,0.70
2022-12-16T17:19:47.675Z,0.70
2022-12-16T17:22:33.494Z,0.60
2022-12-16T17:25:20.987Z,0.50
2022-12-16T17:28:06.592Z,0.40
2022-12-16T17:30:57.452Z,0.30
2022-12-16T17:33:43.588Z,0.20
2022-12-16T17:36:33.034Z,0.10
2022-12-16T17:39:18.679Z,0.10
2022-12-16T17:42:04.316Z,0.00
2022-12-16T17:44:56.225Z,-0.10
2022-12-16T17:47:42.693Z,-0.10
2022-12-16T17:50:28.699Z,-0.20
2022-12-16T17:53:17.430Z,-0.30
2022-12-16T17:56:04.259Z,-0.30
2022-12-16T17:58:52.441Z,-0.30
2022-12-16T18:01:39.674Z,-0.40
2022-12-16T18:04:25.863Z,-0.50
2022-12-16T18:07:12.219Z,-0.60
2022-12-16T18:09:59.526Z,-0.60
2022-12-16T18:12:45.440Z,-0.60
2022-12-16T18:15:32.077Z,-0.60
2022-12-16T18:18:17.539Z,-0.70
2022-12-16T18:21:03.778Z,-0.70
2022-12-16T18:23:49.846Z,-0.80
2022-12-16T18:26:37.153Z,-0.80
2022-12-16T18:29:22.710Z,-0.80
2022-12-16T18:32:08.996Z,-0.90
2022-12-16T18:34:57.378Z,-0.90
2022-12-16T18:37:49.911Z,-0.90
2022-12-16T18:40:36.053Z,-0.90
2022-12-16T18:43:23.765Z,-0.90
2022-12-16T18:46:12.561Z,-1.00
2022-12-16T18:48:58.079Z,-1.00
2022-12-16T18:51:43.592Z,-1.10
2022-12-16T18:54:29.005Z,-1.20
2022-12-16T18:57:14.381Z,-1.10
2022-12-16T19:00:01.171Z,-1.10
2022-12-16T19:02:46.843Z,-1.10
2022-12-16T19:05:32.312Z,-1.10
2022-12-16T19:08:17.935Z,-1.10
2022-12-16T19:11:03.560Z,-1.20
2022-12-16T19:13:48.829Z,-1.20
2022-12-16T19:16:35.635Z,-1.30
2022-12-16T19:19:21.326Z,-1.30
2022-12-16T19:22:06.946Z,-1.40
2022-12-16T19:24:59.701Z,-1.40
2022-12-16T19:27:45.420Z,-1.50
2022-12-16T19:30:31.034Z,-1.50
2022-12-16T19:33:18.014Z,-1.50
2022-12-16T19:36:03.384Z,-1.60
2022-12-16T19:38:48.873Z,-1.60
2022-12-16T19:41:35.456Z,-1.60
2022-12-16T19:44:21.171Z,-1.60
2022-12-16T19:47:06.970Z,-1.60
2022-12-16T19:49:54.721Z,-1.70
2022-12-16T19:52:40.400Z,-1.70
2022-12-16T19:55:26.318Z,-1.60
2022-12-16T19:58:12.195Z,-1.50
2022-12-16T20:00:57.912Z,-1.40
2022-12-16T20:03:55.212Z,-1.30
2022-12-16T20:06:43.619Z,-1.30
2022-12-16T20:09:25.562Z,-1.20
2022-12-16T20:12:11.409Z,-1.20
2022-12-16T20:14:57.857Z,-1.20
2022-12-16T20:17:43.575Z,-1.10
2022-12-16T20:20:29.751Z,-1.10
2022-12-16T20:23:16.839Z,-1.00
2022-12-16T20:26:02.300Z,-1.00
2022-12-16T20:28:47.993Z,-0.90
2022-12-16T20:31:36.174Z,-0.80
2022-12-16T20:34:20.826Z,-0.90
2022-12-16T20:37:17.898Z,-0.90
2022-12-16T20:40:05.000Z,-0.80
2022-12-16T20:42:50.439Z,-0.80
2022-12-16T20:45:36.626Z,-0.60
2022-12-16T20:48:22.822Z,-0.80
2022-12-16T20:51:12.930Z,-0.70
2022-12-16T20:53:58.682Z,-0.70
2022-12-16T20:56:46.266Z,-0.70
2022-12-16T20:59:32.078Z,-0.70
2022-12-16T21:02:29.072Z,-0.70
2022-12-16T21:05:17.958Z,-0.70
2022-12-16T21:08:03.637Z,-0.70
2022-12-16T21:10:48.901Z,-0.70
2022-12-16T21:13:36.810Z,-0.60
2022-12-16T21:16:24.995Z,-0.60
2022-12-16T21:19:10.986Z,-0.60
2022-12-16T21:21:56.863Z,-0.60
2022-12-16T21:24:42.436Z,-0.60
2022-12-16T21:27:28.564Z,-0.60
2022-12-16T21:30:15.236Z,-0.70
2022-12-16T21:33:01.023Z,-0.70
2022-12-16T21:35:46.606Z,-0.60
2022-12-16T21:38:32.020Z,-0.60
2022-12-16T21:41:17.440Z,-0.60
2022-12-16T21:44:02.923Z,-0.50
2022-12-16T21:46:49.972Z,-0.50
2022-12-16T21:49:35.314Z,-0.50
2022-12-16T21:52:20.863Z,-0.50
2022-12-16T21:55:06.212Z,-0.50
2022-12-16T21:57:53.277Z,-0.50
2022-12-16T22:00:39.442Z,-0.50
2022-12-16T22:03:26.372Z,-0.50
2022-12-16T22:06:11.660Z,-0.50
2022-12-16T22:08:57.303Z,-0.50
2022-12-16T22:11:41.827Z,-0.50
2022-12-16T22:14:27.379Z,-0.50
2022-12-16T22:17:13.094Z,-0.50
2022-12-16T22:20:00.323Z,-0.60
2022-12-16T22:22:45.946Z,-0.50
2022-12-16T22:25:31.714Z,-0.60
2022-12-16T22:28:17.240Z,-0.60
2022-12-16T22:31:02.897Z,-0.60
2022-12-16T22:33:48.953Z,-0.60
2022-12-16T22:36:35.940Z,-0.60
2022-12-16T22:39:21.423Z,-0.60
2022-12-16T22:42:06.985Z,-0.60
2022-12-16T22:44:52.506Z,-0.60
2022-12-16T22:47:42.212Z,-0.60
2022-12-16T22:50:33.040Z,-0.70
2022-12-16T22:53:19.624Z,-0.70
2022-12-16T22:56:09.170Z,-0.70
2022-12-16T22:58:55.211Z,-0.70
2022-12-16T23:01:42.652Z,-0.80
2022-12-16T23:04:28.518Z,-0.80
2022-12-16T23:07:14.551Z,-0.90
2022-12-16T23:10:01.396Z,-1.00
2022-12-16T23:12:46.779Z,-1.00
2022-12-16T23:15:32.944Z,-1.00
2022-12-16T23:18:18.475Z,-1.10
2022-12-16T23:21:05.186Z,-1.10
2022-12-16T23:23:51.042Z,-1.10
2022-12-16T23:26:39.593Z,-1.20
2022-12-16T23:29:25.161Z,-1.20
2022-12-16T23:32:10.832Z,-1.20
2022-12-16T23:34:59.457Z,-1.20
2022-12-16T23:37:44.919Z,-1.20
2022-12-16T23:40:39.098Z,-1.20
2022-12-16T23:43:26.293Z,-1.20
2022-12-16T23:46:11.633Z,-1.30
2022-12-16T23:48:57.181Z,-1.50
2022-12-16T23:51:42.937Z,-1.60
2022-12-16T23:54:28.451Z,-1.70
2022-12-16T23:57:14.279Z,-1.70
